sensor_id;sensor_type;location;lat;lon;timestamp;temperature;humidity
61201;DHT22;47065;52.898;6.992;2023-02-28T00:00:33;3.50;99.90
61201;DHT22;47065;52.898;6.992;2023-02-28T00:02:59;3.50;99.90
61201;DHT22;47065;52.898;6.992;2023-02-28T00:05:26;3.50;99.90
61201;DHT22;47065;52.898;6.992;2023-02-28T00:07:52;3.50;99.90
61201;DHT22;47065;52.898;6.992;2023-02-28T00:10:23;3.50;99.90
61201;DHT22;47065;52.898;6.992;2023-02-28T00:12:50;3.50;99.90
61201;DHT22;47065;52.898;6.992;2023-02-28T00:15:16;3.60;99.90
61201;DHT22;47065;52.898;6.992;2023-02-28T00:17:43;3.60;99.90
61201;DHT22;47065;52.898;6.992;2023-02-28T00:20:09;3.60;99.90
61201;DHT22;47065;52.898;6.992;2023-02-28T00:22:36;3.60;99.90
61201;DHT22;47065;52.898;6.992;2023-02-28T00:25:03;3.60;99.90
61201;DHT22;47065;52.898;6.992;2023-02-28T00:27:30;3.60;99.90
61201;DHT22;47065;52.898;6.992;2023-02-28T00:29:56;3.50;99.90
61201;DHT22;47065;52.898;6.992;2023-02-28T00:32:21;3.60;99.90
61201;DHT22;47065;52.898;6.992;2023-02-28T00:34:47;3.60;99.90
61201;DHT22;47065;52.898;6.992;2023-02-28T00:37:13;3.60;99.90
61201;DHT22;47065;52.898;6.992;2023-02-28T00:39:39;3.60;99.90
61201;DHT22;47065;52.898;6.992;2023-02-28T00:42:06;3.60;99.90
61201;DHT22;47065;52.898;6.992;2023-02-28T00:44:32;3.60;99.90
61201;DHT22;47065;52.898;6.992;2023-02-28T00:46:59;3.70;99.90
61201;DHT22;47065;52.898;6.992;2023-02-28T00:49:26;3.60;99.90
61201;DHT22;47065;52.898;6.992;2023-02-28T00:51:52;3.70;99.90
61201;DHT22;47065;52.898;6.992;2023-02-28T00:54:19;3.60;99.90
61201;DHT22;47065;52.898;6.992;2023-02-28T00:56:45;3.60;99.90
61201;DHT22;47065;52.898;6.992;2023-02-28T00:59:15;3.60;99.90
61201;DHT22;47065;52.898;6.992;2023-02-28T01:01:41;3.60;99.90
61201;DHT22;47065;52.898;6.992;2023-02-28T01:04:07;3.60;99.90
61201;DHT22;47065;52.898;6.992;2023-02-28T01:06:33;3.60;99.90
61201;DHT22;47065;52.898;6.992;2023-02-28T01:09:00;3.60;99.90
61201;DHT22;47065;52.898;6.992;2023-02-28T01:11:25;3.60;99.90
61201;DHT22;47065;52.898;6.992;2023-02-28T01:13:51;3.60;99.90
61201;DHT22;47065;52.898;6.992;2023-02-28T01:16:17;3.60;99.90
61201;DHT22;47065;52.898;6.992;2023-02-28T01:18:43;3.60;99.90
61201;DHT22;47065;52.898;6.992;2023-02-28T01:21:15;3.60;99.90
61201;DHT22;47065;52.898;6.992;2023-02-28T01:23:41;3.60;99.90
61201;DHT22;47065;52.898;6.992;2023-02-28T01:26:16;3.60;99.90
61201;DHT22;47065;52.898;6.992;2023-02-28T01:28:42;3.60;99.90
61201;DHT22;47065;52.898;6.992;2023-02-28T01:31:09;3.60;99.90
61201;DHT22;47065;52.898;6.992;2023-02-28T01:33:35;3.60;99.90
61201;DHT22;47065;52.898;6.992;2023-02-28T01:36:03;3.60;99.90
61201;DHT22;47065;52.898;6.992;2023-02-28T01:38:29;3.60;99.90
61201;DHT22;47065;52.898;6.992;2023-02-28T01:40:55;3.60;99.90
61201;DHT22;47065;52.898;6.992;2023-02-28T01:43:29;3.60;99.90
61201;DHT22;47065;52.898;6.992;2023-02-28T01:45:57;3.60;99.90
61201;DHT22;47065;52.898;6.992;2023-02-28T01:48:31;3.60;99.90
61201;DHT22;47065;52.898;6.992;2023-02-28T01:51:03;3.70;99.90
61201;DHT22;47065;52.898;6.992;2023-02-28T01:53:35;3.60;99.90
61201;DHT22;47065;52.898;6.992;2023-02-28T01:56:06;3.60;99.90
61201;DHT22;47065;52.898;6.992;2023-02-28T01:58:33;3.70;99.90
61201;DHT22;47065;52.898;6.992;2023-02-28T02:00:59;3.60;99.90
61201;DHT22;47065;52.898;6.992;2023-02-28T02:03:25;3.60;99.90
61201;DHT22;47065;52.898;6.992;2023-02-28T02:05:51;3.60;99.90
61201;DHT22;47065;52.898;6.992;2023-02-28T02:08:23;3.60;99.90
61201;DHT22;47065;52.898;6.992;2023-02-28T02:10:57;3.60;99.90
61201;DHT22;47065;52.898;6.992;2023-02-28T02:13:48;3.60;99.90
61201;DHT22;47065;52.898;6.992;2023-02-28T02:30:14;3.60;99.90
61201;DHT22;47065;52.898;6.992;2023-02-28T02:35:43;3.60;99.90
61201;DHT22;47065;52.898;6.992;2023-02-28T02:41:09;3.60;99.90
61201;DHT22;47065;52.898;6.992;2023-02-28T02:43:45;3.60;99.90
61201;DHT22;47065;52.898;6.992;2023-02-28T02:46:18;3.60;99.90
61201;DHT22;47065;52.898;6.992;2023-02-28T02:48:45;3.60;99.90
61201;DHT22;47065;52.898;6.992;2023-02-28T02:51:17;3.50;99.90
61201;DHT22;47065;52.898;6.992;2023-02-28T02:54:15;3.50;99.90
61201;DHT22;47065;52.898;6.992;2023-02-28T02:56:45;3.50;99.90
61201;DHT22;47065;52.898;6.992;2023-02-28T02:59:15;3.50;99.90
61201;DHT22;47065;52.898;6.992;2023-02-28T03:01:50;3.50;99.90
61201;DHT22;47065;52.898;6.992;2023-02-28T03:04:20;3.50;99.90
61201;DHT22;47065;52.898;6.992;2023-02-28T03:06:47;3.50;99.90
61201;DHT22;47065;52.898;6.992;2023-02-28T03:09:14;3.50;99.90
61201;DHT22;47065;52.898;6.992;2023-02-28T03:11:41;3.40;99.90
61201;DHT22;47065;52.898;6.992;2023-02-28T03:14:45;3.40;99.90
61201;DHT22;47065;52.898;6.992;2023-02-28T03:20:17;3.40;99.90
61201;DHT22;47065;52.898;6.992;2023-02-28T03:22:55;3.40;99.90
61201;DHT22;47065;52.898;6.992;2023-02-28T03:31:16;3.30;99.90
61201;DHT22;47065;52.898;6.992;2023-02-28T03:33:54;3.30;99.90
61201;DHT22;47065;52.898;6.992;2023-02-28T03:36:30;3.30;99.90
61201;DHT22;47065;52.898;6.992;2023-02-28T03:38:58;3.30;99.90
61201;DHT22;47065;52.898;6.992;2023-02-28T03:41:34;3.30;99.90
61201;DHT22;47065;52.898;6.992;2023-02-28T03:44:06;3.30;99.90
61201;DHT22;47065;52.898;6.992;2023-02-28T03:46:38;3.30;99.90
61201;DHT22;47065;52.898;6.992;2023-02-28T03:49:14;3.30;99.90
61201;DHT22;47065;52.898;6.992;2023-02-28T03:51:42;3.30;99.90
61201;DHT22;47065;52.898;6.992;2023-02-28T03:54:16;3.30;99.90
61201;DHT22;47065;52.898;6.992;2023-02-28T03:57:00;3.20;99.90
61201;DHT22;47065;52.898;6.992;2023-02-28T03:59:32;3.30;99.90
61201;DHT22;47065;52.898;6.992;2023-02-28T04:01:59;3.20;99.90
61201;DHT22;47065;52.898;6.992;2023-02-28T04:04:25;3.20;99.90
61201;DHT22;47065;52.898;6.992;2023-02-28T04:06:52;3.30;99.90
61201;DHT22;47065;52.898;6.992;2023-02-28T04:09:21;3.20;99.90
61201;DHT22;47065;52.898;6.992;2023-02-28T04:11:51;3.20;99.90
61201;DHT22;47065;52.898;6.992;2023-02-28T04:14:18;3.20;99.90
61201;DHT22;47065;52.898;6.992;2023-02-28T04:16:44;3.10;99.90
61201;DHT22;47065;52.898;6.992;2023-02-28T04:19:11;3.10;99.90
61201;DHT22;47065;52.898;6.992;2023-02-28T04:21:46;3.10;99.90
61201;DHT22;47065;52.898;6.992;2023-02-28T04:24:14;3.20;99.90
61201;DHT22;47065;52.898;6.992;2023-02-28T04:26:43;3.10;99.90
61201;DHT22;47065;52.898;6.992;2023-02-28T04:29:11;3.10;99.90
61201;DHT22;47065;52.898;6.992;2023-02-28T04:31:37;3.10;99.90
61201;DHT22;47065;52.898;6.992;2023-02-28T04:34:03;3.10;99.90
61201;DHT22;47065;52.898;6.992;2023-02-28T04:36:28;3.10;99.90
61201;DHT22;47065;52.898;6.992;2023-02-28T04:38:54;3.10;99.90
61201;DHT22;47065;52.898;6.992;2023-02-28T04:41:21;3.10;99.90
61201;DHT22;47065;52.898;6.992;2023-02-28T04:43:48;3.10;99.90
61201;DHT22;47065;52.898;6.992;2023-02-28T04:46:14;3.10;99.90
61201;DHT22;47065;52.898;6.992;2023-02-28T04:48:40;3.10;99.90
61201;DHT22;47065;52.898;6.992;2023-02-28T04:51:08;3.10;99.90
61201;DHT22;47065;52.898;6.992;2023-02-28T04:53:34;3.10;99.90
61201;DHT22;47065;52.898;6.992;2023-02-28T04:56:00;3.10;99.90
61201;DHT22;47065;52.898;6.992;2023-02-28T04:58:26;3.10;99.90
61201;DHT22;47065;52.898;6.992;2023-02-28T05:00:52;3.10;99.90
61201;DHT22;47065;52.898;6.992;2023-02-28T05:03:19;3.10;99.90
61201;DHT22;47065;52.898;6.992;2023-02-28T05:05:46;3.10;99.90
61201;DHT22;47065;52.898;6.992;2023-02-28T05:08:12;3.10;99.90
61201;DHT22;47065;52.898;6.992;2023-02-28T05:10:38;3.10;99.90
61201;DHT22;47065;52.898;6.992;2023-02-28T05:13:04;3.10;99.90
61201;DHT22;47065;52.898;6.992;2023-02-28T05:15:29;3.10;99.90
61201;DHT22;47065;52.898;6.992;2023-02-28T05:17:55;3.10;99.90
61201;DHT22;47065;52.898;6.992;2023-02-28T05:20:21;3.10;99.90
61201;DHT22;47065;52.898;6.992;2023-02-28T05:22:47;3.10;99.90
61201;DHT22;47065;52.898;6.992;2023-02-28T05:25:18;3.10;99.90
61201;DHT22;47065;52.898;6.992;2023-02-28T05:27:44;3.10;99.90
61201;DHT22;47065;52.898;6.992;2023-02-28T05:30:11;3.10;99.90
61201;DHT22;47065;52.898;6.992;2023-02-28T05:32:40;3.10;99.90
61201;DHT22;47065;52.898;6.992;2023-02-28T05:35:10;3.00;99.90
61201;DHT22;47065;52.898;6.992;2023-02-28T05:37:37;3.00;99.90
61201;DHT22;47065;52.898;6.992;2023-02-28T05:40:03;3.00;99.90
61201;DHT22;47065;52.898;6.992;2023-02-28T05:42:31;3.00;99.90
61201;DHT22;47065;52.898;6.992;2023-02-28T05:44:57;3.00;99.90
61201;DHT22;47065;52.898;6.992;2023-02-28T05:47:23;3.00;99.90
61201;DHT22;47065;52.898;6.992;2023-02-28T05:49:48;3.00;99.90
61201;DHT22;47065;52.898;6.992;2023-02-28T05:52:14;3.00;99.90
61201;DHT22;47065;52.898;6.992;2023-02-28T05:54:40;3.00;99.90
61201;DHT22;47065;52.898;6.992;2023-02-28T05:57:06;3.00;99.90
61201;DHT22;47065;52.898;6.992;2023-02-28T05:59:32;3.00;99.90
61201;DHT22;47065;52.898;6.992;2023-02-28T06:01:58;2.90;99.90
61201;DHT22;47065;52.898;6.992;2023-02-28T06:04:24;2.90;99.90
61201;DHT22;47065;52.898;6.992;2023-02-28T06:06:50;2.90;99.90
61201;DHT22;47065;52.898;6.992;2023-02-28T06:09:17;2.90;99.90
61201;DHT22;47065;52.898;6.992;2023-02-28T06:11:43;2.90;99.90
61201;DHT22;47065;52.898;6.992;2023-02-28T06:14:15;2.90;99.90
61201;DHT22;47065;52.898;6.992;2023-02-28T06:16:41;2.90;99.90
61201;DHT22;47065;52.898;6.992;2023-02-28T06:19:07;2.90;99.90
61201;DHT22;47065;52.898;6.992;2023-02-28T06:21:32;2.90;99.90
61201;DHT22;47065;52.898;6.992;2023-02-28T06:23:58;2.90;99.90
61201;DHT22;47065;52.898;6.992;2023-02-28T06:26:24;2.90;99.90
61201;DHT22;47065;52.898;6.992;2023-02-28T06:28:50;2.90;99.90
61201;DHT22;47065;52.898;6.992;2023-02-28T06:31:17;2.90;99.90
61201;DHT22;47065;52.898;6.992;2023-02-28T06:33:44;2.90;99.90
61201;DHT22;47065;52.898;6.992;2023-02-28T06:36:12;2.90;99.90
61201;DHT22;47065;52.898;6.992;2023-02-28T06:38:40;2.90;99.90
61201;DHT22;47065;52.898;6.992;2023-02-28T06:41:07;2.90;99.90
61201;DHT22;47065;52.898;6.992;2023-02-28T06:43:39;2.90;99.90
61201;DHT22;47065;52.898;6.992;2023-02-28T06:46:08;2.90;99.90
61201;DHT22;47065;52.898;6.992;2023-02-28T06:48:34;2.90;99.90
61201;DHT22;47065;52.898;6.992;2023-02-28T06:51:06;2.90;99.90
61201;DHT22;47065;52.898;6.992;2023-02-28T06:53:32;2.90;99.90
61201;DHT22;47065;52.898;6.992;2023-02-28T06:55:58;3.00;99.90
61201;DHT22;47065;52.898;6.992;2023-02-28T06:58:24;3.00;99.90
61201;DHT22;47065;52.898;6.992;2023-02-28T07:00:52;3.00;99.90
61201;DHT22;47065;52.898;6.992;2023-02-28T07:03:18;3.00;99.90
61201;DHT22;47065;52.898;6.992;2023-02-28T07:05:44;3.10;99.90
61201;DHT22;47065;52.898;6.992;2023-02-28T07:08:11;3.10;99.90
61201;DHT22;47065;52.898;6.992;2023-02-28T07:10:37;3.10;99.90
61201;DHT22;47065;52.898;6.992;2023-02-28T07:13:04;3.10;99.90
61201;DHT22;47065;52.898;6.992;2023-02-28T07:15:30;3.10;99.90
61201;DHT22;47065;52.898;6.992;2023-02-28T07:17:56;3.10;99.90
61201;DHT22;47065;52.898;6.992;2023-02-28T07:20:23;3.10;99.90
61201;DHT22;47065;52.898;6.992;2023-02-28T07:22:49;3.10;99.90
61201;DHT22;47065;52.898;6.992;2023-02-28T07:25:24;3.00;99.90
61201;DHT22;47065;52.898;6.992;2023-02-28T07:27:50;3.10;99.90
61201;DHT22;47065;52.898;6.992;2023-02-28T07:30:16;3.00;99.90
61201;DHT22;47065;52.898;6.992;2023-02-28T07:32:41;3.00;99.90
61201;DHT22;47065;52.898;6.992;2023-02-28T07:35:07;2.90;99.90
61201;DHT22;47065;52.898;6.992;2023-02-28T07:37:33;3.00;99.90
61201;DHT22;47065;52.898;6.992;2023-02-28T07:40:06;3.00;99.90
61201;DHT22;47065;52.898;6.992;2023-02-28T07:42:37;3.00;99.90
61201;DHT22;47065;52.898;6.992;2023-02-28T07:45:04;2.90;99.90
61201;DHT22;47065;52.898;6.992;2023-02-28T07:47:30;2.90;99.90
61201;DHT22;47065;52.898;6.992;2023-02-28T07:49:57;3.00;99.90
61201;DHT22;47065;52.898;6.992;2023-02-28T07:52:23;2.90;99.90
61201;DHT22;47065;52.898;6.992;2023-02-28T07:54:50;3.00;99.90
61201;DHT22;47065;52.898;6.992;2023-02-28T07:57:16;2.90;99.90
61201;DHT22;47065;52.898;6.992;2023-02-28T07:59:42;2.90;99.90
61201;DHT22;47065;52.898;6.992;2023-02-28T08:02:13;2.90;99.90
61201;DHT22;47065;52.898;6.992;2023-02-28T08:04:39;3.00;99.90
61201;DHT22;47065;52.898;6.992;2023-02-28T08:07:05;3.00;99.90
61201;DHT22;47065;52.898;6.992;2023-02-28T08:09:31;3.10;99.90
61201;DHT22;47065;52.898;6.992;2023-02-28T08:11:56;3.10;99.90
61201;DHT22;47065;52.898;6.992;2023-02-28T08:14:22;3.10;99.90
61201;DHT22;47065;52.898;6.992;2023-02-28T08:16:48;3.10;99.90
61201;DHT22;47065;52.898;6.992;2023-02-28T08:19:14;3.20;99.90
61201;DHT22;47065;52.898;6.992;2023-02-28T08:21:39;3.20;99.90
61201;DHT22;47065;52.898;6.992;2023-02-28T08:24:05;3.30;99.90
61201;DHT22;47065;52.898;6.992;2023-02-28T08:26:32;3.40;99.90
61201;DHT22;47065;52.898;6.992;2023-02-28T08:28:58;3.50;99.90
61201;DHT22;47065;52.898;6.992;2023-02-28T08:31:24;3.60;99.90
61201;DHT22;47065;52.898;6.992;2023-02-28T08:33:50;3.70;99.90
61201;DHT22;47065;52.898;6.992;2023-02-28T08:36:17;3.80;99.90
61201;DHT22;47065;52.898;6.992;2023-02-28T08:38:43;3.80;99.90
61201;DHT22;47065;52.898;6.992;2023-02-28T08:41:11;3.90;99.90
61201;DHT22;47065;52.898;6.992;2023-02-28T08:43:38;3.90;99.90
61201;DHT22;47065;52.898;6.992;2023-02-28T08:46:05;4.00;99.90
61201;DHT22;47065;52.898;6.992;2023-02-28T08:48:32;4.20;99.90
61201;DHT22;47065;52.898;6.992;2023-02-28T08:51:07;4.30;99.90
61201;DHT22;47065;52.898;6.992;2023-02-28T08:53:35;4.50;99.90
61201;DHT22;47065;52.898;6.992;2023-02-28T08:56:03;4.70;99.90
61201;DHT22;47065;52.898;6.992;2023-02-28T08:58:29;4.80;99.90
61201;DHT22;47065;52.898;6.992;2023-02-28T09:00:55;5.00;99.90
61201;DHT22;47065;52.898;6.992;2023-02-28T09:03:22;5.20;99.90
61201;DHT22;47065;52.898;6.992;2023-02-28T09:05:59;5.50;99.90
61201;DHT22;47065;52.898;6.992;2023-02-28T09:08:26;5.70;99.90
61201;DHT22;47065;52.898;6.992;2023-02-28T09:10:52;5.90;99.90
61201;DHT22;47065;52.898;6.992;2023-02-28T09:13:19;6.00;99.90
61201;DHT22;47065;52.898;6.992;2023-02-28T09:15:45;6.20;99.90
61201;DHT22;47065;52.898;6.992;2023-02-28T09:18:11;6.50;99.90
61201;DHT22;47065;52.898;6.992;2023-02-28T09:20:38;6.80;99.90
61201;DHT22;47065;52.898;6.992;2023-02-28T09:23:06;7.10;99.90
61201;DHT22;47065;52.898;6.992;2023-02-28T09:25:31;7.40;99.90
61201;DHT22;47065;52.898;6.992;2023-02-28T09:27:57;7.80;99.90
61201;DHT22;47065;52.898;6.992;2023-02-28T09:30:23;8.20;99.90
61201;DHT22;47065;52.898;6.992;2023-02-28T09:32:48;8.60;99.90
61201;DHT22;47065;52.898;6.992;2023-02-28T09:35:21;9.00;99.90
61201;DHT22;47065;52.898;6.992;2023-02-28T09:37:48;9.50;99.90
61201;DHT22;47065;52.898;6.992;2023-02-28T09:40:15;10.00;99.90
61201;DHT22;47065;52.898;6.992;2023-02-28T09:42:46;10.50;99.90
61201;DHT22;47065;52.898;6.992;2023-02-28T09:45:26;11.20;99.90
61201;DHT22;47065;52.898;6.992;2023-02-28T09:47:55;11.20;99.90
61201;DHT22;47065;52.898;6.992;2023-02-28T09:50:36;10.90;99.90
61201;DHT22;47065;52.898;6.992;2023-02-28T09:53:16;10.70;99.90
61201;DHT22;47065;52.898;6.992;2023-02-28T09:55:58;10.30;99.90
61201;DHT22;47065;52.898;6.992;2023-02-28T09:58:47;9.90;99.90
61201;DHT22;47065;52.898;6.992;2023-02-28T10:01:31;9.40;97.90
61201;DHT22;47065;52.898;6.992;2023-02-28T10:04:16;9.00;99.90
61201;DHT22;47065;52.898;6.992;2023-02-28T10:06:48;8.80;99.90
61201;DHT22;47065;52.898;6.992;2023-02-28T10:09:19;8.70;99.90
61201;DHT22;47065;52.898;6.992;2023-02-28T10:11:51;8.70;99.90
61201;DHT22;47065;52.898;6.992;2023-02-28T10:14:18;8.70;99.90
61201;DHT22;47065;52.898;6.992;2023-02-28T10:16:50;8.70;99.90
61201;DHT22;47065;52.898;6.992;2023-02-28T10:19:33;8.70;99.90
61201;DHT22;47065;52.898;6.992;2023-02-28T10:22:08;8.70;99.90
61201;DHT22;47065;52.898;6.992;2023-02-28T10:24:42;8.60;99.90
61201;DHT22;47065;52.898;6.992;2023-02-28T10:27:29;8.70;99.90
61201;DHT22;47065;52.898;6.992;2023-02-28T10:29:57;8.80;99.90
61201;DHT22;47065;52.898;6.992;2023-02-28T10:32:33;8.80;99.90
61201;DHT22;47065;52.898;6.992;2023-02-28T10:35:03;8.90;99.90
61201;DHT22;47065;52.898;6.992;2023-02-28T10:37:32;9.00;99.90
61201;DHT22;47065;52.898;6.992;2023-02-28T10:40:03;9.00;99.90
61201;DHT22;47065;52.898;6.992;2023-02-28T10:42:31;9.00;98.00
61201;DHT22;47065;52.898;6.992;2023-02-28T10:45:09;9.00;95.70
61201;DHT22;47065;52.898;6.992;2023-02-28T10:53:30;9.20;96.80
61201;DHT22;47065;52.898;6.992;2023-02-28T11:01:40;9.50;92.60
61201;DHT22;47065;52.898;6.992;2023-02-28T11:06:47;9.70;80.50
61201;DHT22;47065;52.898;6.992;2023-02-28T11:11:57;9.90;85.60
61201;DHT22;47065;52.898;6.992;2023-02-28T11:14:28;9.90;92.30
61201;DHT22;47065;52.898;6.992;2023-02-28T11:16:59;9.90;89.90
61201;DHT22;47065;52.898;6.992;2023-02-28T11:19:39;10.00;90.30
61201;DHT22;47065;52.898;6.992;2023-02-28T11:22:05;10.20;86.40
61201;DHT22;47065;52.898;6.992;2023-02-28T11:24:37;10.20;82.60
61201;DHT22;47065;52.898;6.992;2023-02-28T11:27:10;10.30;85.50
61201;DHT22;47065;52.898;6.992;2023-02-28T11:29:47;10.40;84.10
61201;DHT22;47065;52.898;6.992;2023-02-28T11:32:20;10.50;80.30
61201;DHT22;47065;52.898;6.992;2023-02-28T11:35:23;10.50;76.30
61201;DHT22;47065;52.898;6.992;2023-02-28T11:37:47;10.40;72.60
61201;DHT22;47065;52.898;6.992;2023-02-28T11:40:18;10.20;72.40
61201;DHT22;47065;52.898;6.992;2023-02-28T11:46:08;9.70;73.50
61201;DHT22;47065;52.898;6.992;2023-02-28T11:51:34;9.70;69.10
61201;DHT22;47065;52.898;6.992;2023-02-28T11:57:35;9.70;72.00
61201;DHT22;47065;52.898;6.992;2023-02-28T12:03:22;9.90;74.40
61201;DHT22;47065;52.898;6.992;2023-02-28T12:05:44;9.90;76.20
61201;DHT22;47065;52.898;6.992;2023-02-28T12:08:23;10.00;75.50
61201;DHT22;47065;52.898;6.992;2023-02-28T12:16:54;10.00;75.00
61201;DHT22;47065;52.898;6.992;2023-02-28T12:20:05;10.10;75.30
61201;DHT22;47065;52.898;6.992;2023-02-28T12:22:55;10.20;76.20
61201;DHT22;47065;52.898;6.992;2023-02-28T12:25:37;10.20;72.50
61201;DHT22;47065;52.898;6.992;2023-02-28T12:28:09;10.30;73.40
61201;DHT22;47065;52.898;6.992;2023-02-28T12:30:41;10.30;72.60
61201;DHT22;47065;52.898;6.992;2023-02-28T12:33:14;10.30;75.20
61201;DHT22;47065;52.898;6.992;2023-02-28T12:35:57;10.30;77.20
61201;DHT22;47065;52.898;6.992;2023-02-28T12:38:40;10.20;76.40
61201;DHT22;47065;52.898;6.992;2023-02-28T12:41:22;10.00;73.70
61201;DHT22;47065;52.898;6.992;2023-02-28T12:44:05;9.80;72.50
61201;DHT22;47065;52.898;6.992;2023-02-28T12:46:37;9.70;72.10
61201;DHT22;47065;52.898;6.992;2023-02-28T12:49:19;9.70;71.50
61201;DHT22;47065;52.898;6.992;2023-02-28T12:51:47;9.60;71.20
61201;DHT22;47065;52.898;6.992;2023-02-28T12:59:38;9.60;71.20
61201;DHT22;47065;52.898;6.992;2023-02-28T13:04:55;9.60;71.40
61201;DHT22;47065;52.898;6.992;2023-02-28T13:09:57;9.60;69.50
61201;DHT22;47065;52.898;6.992;2023-02-28T13:12:24;9.60;71.60
61201;DHT22;47065;52.898;6.992;2023-02-28T13:14:50;9.60;72.60
61201;DHT22;47065;52.898;6.992;2023-02-28T13:17:24;9.60;71.20
61201;DHT22;47065;52.898;6.992;2023-02-28T13:27:50;9.70;72.10
61201;DHT22;47065;52.898;6.992;2023-02-28T13:36:23;9.60;70.40
61201;DHT22;47065;52.898;6.992;2023-02-28T13:38:55;9.60;70.10
61201;DHT22;47065;52.898;6.992;2023-02-28T13:44:12;9.60;70.40
61201;DHT22;47065;52.898;6.992;2023-02-28T14:05:18;9.50;70.70
61201;DHT22;47065;52.898;6.992;2023-02-28T14:07:55;9.50;71.40
61201;DHT22;47065;52.898;6.992;2023-02-28T14:10:25;9.40;71.50
61201;DHT22;47065;52.898;6.992;2023-02-28T14:13:00;9.40;70.80
61201;DHT22;47065;52.898;6.992;2023-02-28T14:15:36;9.30;69.00
61201;DHT22;47065;52.898;6.992;2023-02-28T14:18:20;9.30;70.80
61201;DHT22;47065;52.898;6.992;2023-02-28T14:20:48;9.20;70.40
61201;DHT22;47065;52.898;6.992;2023-02-28T14:26:02;9.20;70.10
61201;DHT22;47065;52.898;6.992;2023-02-28T14:31:44;9.20;71.90
61201;DHT22;47065;52.898;6.992;2023-02-28T14:37:03;9.00;71.10
61201;DHT22;47065;52.898;6.992;2023-02-28T14:39:30;9.00;71.10
61201;DHT22;47065;52.898;6.992;2023-02-28T14:41:57;8.90;70.90
61201;DHT22;47065;52.898;6.992;2023-02-28T14:44:28;8.90;71.90
61201;DHT22;47065;52.898;6.992;2023-02-28T14:46:58;8.90;70.80
61201;DHT22;47065;52.898;6.992;2023-02-28T14:49:28;8.90;71.10
61201;DHT22;47065;52.898;6.992;2023-02-28T14:54:35;8.80;70.90
61201;DHT22;47065;52.898;6.992;2023-02-28T14:57:01;8.80;71.50
61201;DHT22;47065;52.898;6.992;2023-02-28T14:59:30;8.70;71.70
61201;DHT22;47065;52.898;6.992;2023-02-28T15:04:41;8.60;70.80
61201;DHT22;47065;52.898;6.992;2023-02-28T15:07:13;8.50;72.40
61201;DHT22;47065;52.898;6.992;2023-02-28T15:09:39;8.40;72.10
61201;DHT22;47065;52.898;6.992;2023-02-28T15:12:05;8.30;71.60
61201;DHT22;47065;52.898;6.992;2023-02-28T15:14:31;8.20;70.30
61201;DHT22;47065;52.898;6.992;2023-02-28T15:17:01;8.10;70.50
61201;DHT22;47065;52.898;6.992;2023-02-28T15:19:34;8.00;71.30
61201;DHT22;47065;52.898;6.992;2023-02-28T15:22:07;8.00;70.90
61201;DHT22;47065;52.898;6.992;2023-02-28T15:24:46;7.90;71.00
61201;DHT22;47065;52.898;6.992;2023-02-28T15:27:22;7.90;71.10
61201;DHT22;47065;52.898;6.992;2023-02-28T15:29:51;7.80;71.50
61201;DHT22;47065;52.898;6.992;2023-02-28T15:32:32;7.70;71.10
61201;DHT22;47065;52.898;6.992;2023-02-28T15:34:59;7.60;70.70
61201;DHT22;47065;52.898;6.992;2023-02-28T15:38:02;7.60;69.50
61201;DHT22;47065;52.898;6.992;2023-02-28T15:40:37;7.50;70.90
61201;DHT22;47065;52.898;6.992;2023-02-28T15:43:30;7.40;70.30
61201;DHT22;47065;52.898;6.992;2023-02-28T15:45:59;7.40;70.40
61201;DHT22;47065;52.898;6.992;2023-02-28T15:54:01;7.20;71.40
61201;DHT22;47065;52.898;6.992;2023-02-28T15:56:33;7.20;71.80
61201;DHT22;47065;52.898;6.992;2023-02-28T15:59:07;7.10;72.00
61201;DHT22;47065;52.898;6.992;2023-02-28T16:01:35;7.10;72.20
61201;DHT22;47065;52.898;6.992;2023-02-28T16:04:05;7.00;72.80
61201;DHT22;47065;52.898;6.992;2023-02-28T16:09:02;6.90;73.90
61201;DHT22;47065;52.898;6.992;2023-02-28T16:11:28;6.90;75.00
61201;DHT22;47065;52.898;6.992;2023-02-28T16:13:54;6.80;76.00
61201;DHT22;47065;52.898;6.992;2023-02-28T16:16:23;6.80;76.10
61201;DHT22;47065;52.898;6.992;2023-02-28T16:18:50;6.80;76.60
61201;DHT22;47065;52.898;6.992;2023-02-28T16:21:16;6.70;77.90
61201;DHT22;47065;52.898;6.992;2023-02-28T16:23:42;6.60;78.90
61201;DHT22;47065;52.898;6.992;2023-02-28T16:26:10;6.60;79.70
61201;DHT22;47065;52.898;6.992;2023-02-28T16:28:41;6.50;80.00
61201;DHT22;47065;52.898;6.992;2023-02-28T16:31:07;6.50;80.60
61201;DHT22;47065;52.898;6.992;2023-02-28T16:33:33;6.40;81.10
61201;DHT22;47065;52.898;6.992;2023-02-28T16:36:00;6.30;81.40
61201;DHT22;47065;52.898;6.992;2023-02-28T16:38:26;6.30;82.80
61201;DHT22;47065;52.898;6.992;2023-02-28T16:40:53;6.20;82.80
61201;DHT22;47065;52.898;6.992;2023-02-28T16:43:23;6.10;84.60
61201;DHT22;47065;52.898;6.992;2023-02-28T16:45:55;6.10;85.80
61201;DHT22;47065;52.898;6.992;2023-02-28T16:48:22;6.00;87.60
61201;DHT22;47065;52.898;6.992;2023-02-28T16:50:47;5.90;89.30
61201;DHT22;47065;52.898;6.992;2023-02-28T16:53:13;5.90;90.30
61201;DHT22;47065;52.898;6.992;2023-02-28T16:55:39;5.80;90.90
61201;DHT22;47065;52.898;6.992;2023-02-28T16:58:05;5.70;91.60
61201;DHT22;47065;52.898;6.992;2023-02-28T17:00:31;5.60;92.30
61201;DHT22;47065;52.898;6.992;2023-02-28T17:02:57;5.50;93.10
61201;DHT22;47065;52.898;6.992;2023-02-28T17:05:25;5.50;93.80
61201;DHT22;47065;52.898;6.992;2023-02-28T17:07:52;5.40;94.40
61201;DHT22;47065;52.898;6.992;2023-02-28T17:10:24;5.30;95.20
61201;DHT22;47065;52.898;6.992;2023-02-28T17:12:50;5.20;95.90
61201;DHT22;47065;52.898;6.992;2023-02-28T17:15:18;5.20;96.50
61201;DHT22;47065;52.898;6.992;2023-02-28T17:17:46;5.10;97.00
61201;DHT22;47065;52.898;6.992;2023-02-28T17:20:20;5.00;97.40
61201;DHT22;47065;52.898;6.992;2023-02-28T17:22:58;4.90;97.70
61201;DHT22;47065;52.898;6.992;2023-02-28T17:25:24;4.80;98.30
61201;DHT22;47065;52.898;6.992;2023-02-28T17:27:50;4.70;98.90
61201;DHT22;47065;52.898;6.992;2023-02-28T17:30:21;4.70;99.30
61201;DHT22;47065;52.898;6.992;2023-02-28T17:32:47;4.60;99.80
61201;DHT22;47065;52.898;6.992;2023-02-28T17:35:13;4.50;99.90
61201;DHT22;47065;52.898;6.992;2023-02-28T17:37:38;4.40;99.90
61201;DHT22;47065;52.898;6.992;2023-02-28T17:40:05;4.30;99.90
61201;DHT22;47065;52.898;6.992;2023-02-28T17:42:31;4.20;99.90
61201;DHT22;47065;52.898;6.992;2023-02-28T17:44:57;4.10;99.90
61201;DHT22;47065;52.898;6.992;2023-02-28T17:47:22;4.00;99.90
61201;DHT22;47065;52.898;6.992;2023-02-28T17:49:48;4.00;99.90
61201;DHT22;47065;52.898;6.992;2023-02-28T17:52:14;3.90;99.90
61201;DHT22;47065;52.898;6.992;2023-02-28T17:54:39;3.80;99.90
61201;DHT22;47065;52.898;6.992;2023-02-28T17:57:05;3.70;99.90
61201;DHT22;47065;52.898;6.992;2023-02-28T17:59:31;3.60;99.90
61201;DHT22;47065;52.898;6.992;2023-02-28T18:02:02;3.50;99.90
61201;DHT22;47065;52.898;6.992;2023-02-28T18:04:29;3.40;99.90
61201;DHT22;47065;52.898;6.992;2023-02-28T18:06:54;3.40;99.90
61201;DHT22;47065;52.898;6.992;2023-02-28T18:09:26;3.30;99.90
61201;DHT22;47065;52.898;6.992;2023-02-28T18:11:53;3.20;99.90